This is the latest recevied weather packets stored in our database for station/object WA1OUI. If no packets are shown the sender has not sent any weather packets the latest 10 day(s).
| Time | Temp. | Humidity | Pressure | Rain* | Wind** | Luminosity | Snow |
|---|---|---|---|---|---|---|---|
| 1777954555 | 9.44° C | 82% | 1009 hPa | 0 mm | - | 0 W/m² | - |
| 1777954253 | 9.44° C | 82% | 1009.2 hPa | 0 mm | - | 0 W/m² | - |
| 1777953950 | 9.44° C | 81% | 1009.1 hPa | 0 mm | - | 0 W/m² | - |
| 1777953647 | 9.44° C | 81% | 1009.2 hPa | 0 mm | - | 0 W/m² | - |
| 1777943644 | 14.44° C | 59% | 1008.5 hPa | 0 mm | - | 0 W/m² | - |
| 1777943341 | 14.44° C | 58% | 1008.3 hPa | 0 mm | - | 0 W/m² | - |
| 1777943037 | 15° C | 57% | 1008.5 hPa | 0 mm | - | 0 W/m² | - |
| 1777942733 | 15° C | 56% | 1008.1 hPa | 0 mm | - | 0 W/m² | - |
| 1777942430 | 15° C | 56% | 1008.1 hPa | 0 mm | - | 0 W/m² | - |
| 1777942128 | 15° C | 55% | 1008.1 hPa | 0 mm | - | 0 W/m² | - |
| 1777941521 | 15.56° C | 54% | 1007.8 hPa | 0 mm | - | 0 W/m² | - |
| 1777940914 | 15.56° C | 53% | 1007.6 hPa | 0 mm | - | 0 W/m² | - |
| 1777940611 | 16.11° C | 52% | 1007.6 hPa | 0 mm | - | 0 W/m² | - |
| 1777940309 | 16.11° C | 51% | 1007.5 hPa | 0 mm | - | 0 W/m² | - |
| 1777940006 | 16.11° C | 51% | 1007.4 hPa | 0 mm | - | 0 W/m² | - |
| 1777937581 | 17.78° C | 45% | 1006.9 hPa | 0 mm | - | 7 W/m² | - |
| 1777937278 | 17.78° C | 44% | 1006.6 hPa | 0 mm | - | 9 W/m² | - |
| 1777934248 | 18.89° C | 42% | 1006.1 hPa | 0 mm | - | 26 W/m² | - |
| 1777933943 | 19.44° C | 41% | 1006 hPa | 0 mm | - | 27 W/m² | - |
| 1777933644 | 19.44° C | 41% | 1005.8 hPa | 0 mm | - | 28 W/m² | - |
| 1777933035 | 20° C | 40% | 1006.1 hPa | 0 mm | - | 31 W/m² | - |
| 1777932732 | 20° C | 39% | 1006 hPa | 0 mm | - | 34 W/m² | - |
| 1777932428 | 20.56° C | 37% | 1005.9 hPa | 0 mm | - | 35 W/m² | - |
| 1777932126 | 21.11° C | 34% | 1005.9 hPa | 0 mm | - | 38 W/m² | - |
| 1777931822 | 21.67° C | 31% | 1005.9 hPa | 0 mm | - | 48 W/m² | - |
* Rain latest hour (hover to see other rain measurements)
** Current wind speed in m/s (hover to see current wind gust speed)